Time;durP1;ratioP1;P1;durP2;ratioP2;P2;SDS_P1;SDS_P2;PMS_P1;PMS_P2;Temp;Humidity;BMP_temperature;BMP_pressure;BME280_temperature;BME280_humidity;BME280_pressure;Samples;Min_cycle;Max_cycle;Signal;HPM_P1;HPM_P2
2023/07/15 00:00:24;;;;;;;5.53;3.33;;;;;;;18.58;78.97;100332.30;1732587;82;21918;-54
2023/07/15 00:03:31;;;;;;;8.15;4.17;;;;;;;18.57;79.00;100332.50;1739803;82;21823;-55
2023/07/15 00:06:36;;;;;;;9.05;3.90;;;;;;;18.54;78.99;100340.75;1716490;81;21426;-55
2023/07/15 00:09:42;;;;;;;7.35;3.85;;;;;;;18.50;78.98;100333.98;1732438;82;21355;-56
2023/07/15 00:12:50;;;;;;;6.35;3.98;;;;;;;18.47;78.96;100348.27;1732531;82;21331;-55
2023/07/15 00:15:58;;;;;;;5.70;3.45;;;;;;;18.45;78.97;100345.44;1739738;82;21868;-55
2023/07/15 00:19:05;;;;;;;8.95;3.52;;;;;;;18.41;78.96;100353.34;1732382;82;21331;-55
2023/07/15 00:22:16;;;;;;;5.87;3.80;;;;;;;18.38;79.00;100349.64;1739655;82;21420;-54
2023/07/15 00:25:25;;;;;;;7.08;3.87;;;;;;;18.36;78.99;100344.83;1732325;82;21368;-54
2023/07/15 00:28:31;;;;;;;11.08;4.72;;;;;;;18.32;78.95;100356.59;1739613;81;21903;-57
2023/07/15 00:31:39;;;;;;;5.00;3.80;;;;;;;18.25;78.94;100348.34;1701160;83;21234;-55
2023/07/15 00:34:46;;;;;;;7.37;3.87;;;;;;;18.21;78.96;100350.41;1701289;83;21209;-53
2023/07/15 00:37:53;;;;;;;6.50;3.87;;;;;;;18.18;79.00;100364.72;1701463;84;21379;-55
2023/07/15 00:41:00;;;;;;;6.95;3.80;;;;;;;18.14;79.05;100357.38;1701459;84;21220;-56
2023/07/15 00:44:14;;;;;;;6.67;3.45;;;;;;;18.11;79.12;100361.17;1702090;83;21213;-55
2023/07/15 00:47:34;;;;;;;4.78;3.85;;;;;;;18.08;79.17;100365.22;1701368;84;21309;-54
2023/07/15 00:50:42;;;;;;;8.78;3.92;;;;;;;18.05;79.24;100360.66;1701039;84;21707;-55
2023/07/15 00:53:49;;;;;;;8.55;4.10;;;;;;;18.03;79.28;100365.03;1701051;84;21740;-55
2023/07/15 00:57:00;;;;;;;6.72;3.58;;;;;;;18.01;79.28;100374.66;1701459;84;21706;-54
2023/07/15 01:00:09;;;;;;;5.97;3.90;;;;;;;17.96;79.33;100369.80;1701044;84;21241;-57
2023/07/15 01:03:13;;;;;;;9.88;4.12;;;;;;;17.94;79.37;100363.63;1702027;84;21784;-56
2023/07/15 01:06:21;;;;;;;11.03;3.95;;;;;;;17.92;79.37;100371.30;1701505;84;21244;-56
2023/07/15 01:09:29;;;;;;;6.05;4.05;;;;;;;17.90;79.39;100374.84;1701158;83;21690;-54
2023/07/15 01:12:34;;;;;;;8.53;4.08;;;;;;;17.88;79.40;100375.08;1701434;84;21710;-54
2023/07/15 01:15:40;;;;;;;13.72;4.25;;;;;;;17.85;79.40;100377.44;1701036;84;21776;-55
2023/07/15 01:18:47;;;;;;;6.05;3.87;;;;;;;17.83;79.41;100383.72;1700918;84;21252;-55
2023/07/15 01:21:49;;;;;;;8.20;3.87;;;;;;;17.80;79.43;100391.09;1701320;84;21736;-54
2023/07/15 01:24:56;;;;;;;7.58;4.08;;;;;;;17.79;79.48;100394.95;1701230;84;21244;-55
2023/07/15 01:28:04;;;;;;;7.60;4.10;;;;;;;17.76;79.47;100397.61;1701102;84;21296;-55
2023/07/15 01:31:10;;;;;;;5.87;4.12;;;;;;;17.74;79.52;100404.45;1715683;82;21367;-54
2023/07/15 01:34:19;;;;;;;7.67;3.83;;;;;;;17.71;79.49;100407.66;1732207;83;21895;-55
2023/07/15 01:37:27;;;;;;;5.92;3.67;;;;;;;17.67;79.50;100403.09;1732298;83;21367;-55
2023/07/15 01:40:32;;;;;;;15.05;3.72;;;;;;;17.64;79.50;100406.84;1732342;83;21848;-55
2023/07/15 01:43:38;;;;;;;5.75;3.95;;;;;;;17.61;79.55;100408.14;1732351;83;21339;-57
2023/07/15 01:46:44;;;;;;;8.98;4.12;;;;;;;17.58;79.54;100413.27;1732325;83;21351;-55
2023/07/15 01:49:51;;;;;;;6.22;4.20;;;;;;;17.54;79.55;100414.76;1732404;83;21423;-56
2023/07/15 01:52:57;;;;;;;6.80;4.20;;;;;;;17.52;79.59;100421.07;1732336;83;21386;-56
2023/07/15 01:56:03;;;;;;;8.73;4.85;;;;;;;17.50;79.62;100419.05;1732351;83;21390;-56
2023/07/15 01:59:10;;;;;;;6.45;4.62;;;;;;;17.47;79.63;100430.56;1732357;83;21378;-55
2023/07/15 02:02:15;;;;;;;6.58;3.77;;;;;;;17.44;79.65;100430.45;1732355;83;21351;-55
2023/07/15 02:05:21;;;;;;;7.83;3.98;;;;;;;17.43;79.69;100432.88;1732371;83;21340;-55
2023/07/15 02:08:27;;;;;;;6.00;4.28;;;;;;;17.43;79.75;100437.55;1732351;83;21347;-54
2023/07/15 02:11:27;;;;;;;11.50;4.70;;;;;;;17.42;79.79;100434.48;1732362;83;21378;-54
2023/07/15 02:14:20;;;;;;;10.72;4.30;;;;;;;17.42;79.82;100441.40;1732468;83;21335;-55
2023/07/15 02:17:27;;;;;;;6.80;4.40;;;;;;;17.42;79.81;100443.64;1732344;82;21371;-55
2023/07/15 02:20:35;;;;;;;5.50;4.03;;;;;;;17.40;79.82;100442.14;1732329;83;21355;-54
2023/07/15 02:23:41;;;;;;;6.90;4.22;;;;;;;17.40;79.82;100443.53;1732421;83;21825;-54
2023/07/15 02:26:48;;;;;;;7.45;4.45;;;;;;;17.40;79.82;100443.53;1732355;81;21359;-55
2023/07/15 02:29:55;;;;;;;7.47;4.65;;;;;;;17.40;79.80;100440.77;1732328;83;21343;-55
2023/07/15 02:33:02;;;;;;;9.13;3.90;;;;;;;17.40;79.83;100443.53;1731352;82;21757;-55
2023/07/15 02:36:08;;;;;;;8.78;4.22;;;;;;;17.40;79.85;100437.47;1732331;83;21434;-53
2023/07/15 02:39:16;;;;;;;9.88;4.40;;;;;;;17.41;79.83;100445.25;1732377;83;21375;-56
2023/07/15 02:42:23;;;;;;;11.50;4.22;;;;;;;17.42;79.80;100449.70;1732320;83;21935;-55
2023/07/15 02:45:30;;;;;;;9.23;5.12;;;;;;;17.44;79.84;100448.96;1732368;81;21860;-54
2023/07/15 02:48:37;;;;;;;7.12;4.72;;;;;;;17.46;79.90;100457.91;1732303;83;21407;-54
2023/07/15 02:51:43;;;;;;;11.05;5.60;;;;;;;17.50;79.98;100462.81;1732311;83;21366;-55
2023/07/15 02:54:50;;;;;;;7.60;4.35;;;;;;;17.54;80.03;100461.30;1732271;83;21383;-55
2023/07/15 02:57:58;;;;;;;5.92;4.03;;;;;;;17.58;80.07;100468.63;1713877;83;21351;-55
2023/07/15 03:01:04;;;;;;;10.72;4.12;;;;;;;17.62;80.10;100471.27;1732314;81;21810;-53
2023/07/15 03:04:11;;;;;;;8.10;4.53;;;;;;;17.65;80.16;100473.06;1732439;81;21852;-54
2023/07/15 03:07:18;;;;;;;9.35;4.22;;;;;;;17.70;80.26;100476.55;1732379;83;21366;-54
2023/07/15 03:10:25;;;;;;;10.35;4.30;;;;;;;17.75;80.30;100472.59;1732354;83;21390;-55
2023/07/15 03:13:31;;;;;;;5.53;4.50;;;;;;;17.80;80.33;100475.56;1732334;83;21339;-54
2023/07/15 03:16:37;;;;;;;8.68;4.58;;;;;;;17.85;80.40;100470.22;1732320;81;21442;-55
2023/07/15 03:19:44;;;;;;;9.30;4.85;;;;;;;17.92;80.45;100476.55;1732403;82;21344;-55
2023/07/15 03:22:51;;;;;;;6.62;3.92;;;;;;;17.98;80.48;100483.14;1732383;83;21480;-55
2023/07/15 03:25:57;;;;;;;8.30;4.40;;;;;;;18.03;80.48;100473.08;1732323;83;21352;-53
2023/07/15 03:29:08;;;;;;;7.30;4.72;;;;;;;18.08;80.45;100480.20;1732374;81;21370;-56
2023/07/15 03:32:12;;;;;;;6.28;4.50;;;;;;;18.14;80.47;100475.70;1732298;82;21978;-56
2023/07/15 03:35:19;;;;;;;12.75;4.72;;;;;;;18.21;80.45;100479.27;1718619;82;21868;-56
2023/07/15 03:38:26;;;;;;;8.53;4.60;;;;;;;18.25;80.43;100487.47;1739616;82;21831;-55
2023/07/15 03:41:32;;;;;;;5.15;4.03;;;;;;;18.28;80.41;100482.33;1739611;82;21406;-56
2023/07/15 03:44:40;;;;;;;9.00;4.08;;;;;;;18.33;80.45;100486.64;1739573;82;21380;-56
2023/07/15 03:47:46;;;;;;;7.72;4.12;;;;;;;18.37;80.48;100493.45;1742899;81;21847;-55
2023/07/15 03:50:53;;;;;;;7.70;4.12;;;;;;;18.42;80.50;100492.28;1739493;82;21389;-55
2023/07/15 03:54:00;;;;;;;9.38;4.30;;;;;;;18.47;80.54;100491.05;1739649;82;21407;-56
2023/07/15 03:57:07;;;;;;;6.65;4.12;;;;;;;18.55;80.61;100494.94;1739652;82;21903;-55
2023/07/15 04:00:17;;;;;;;10.60;5.37;;;;;;;18.63;80.65;100493.28;1739538;82;21383;-54
2023/07/15 04:03:24;;;;;;;5.30;4.00;;;;;;;18.70;80.62;100496.86;1739641;82;21335;-54
2023/07/15 04:06:31;;;;;;;8.78;4.30;;;;;;;18.76;80.61;100497.86;1739609;82;21477;-55
2023/07/15 04:09:37;;;;;;;7.53;4.60;;;;;;;18.84;80.62;100504.52;1739595;82;21342;-53
2023/07/15 04:12:42;;;;;;;10.60;4.50;;;;;;;18.89;80.62;100505.55;1739601;82;21824;-54
2023/07/15 04:15:51;;;;;;;5.20;4.03;;;;;;;18.96;80.61;100510.49;1739584;82;21335;-54
2023/07/15 04:18:59;;;;;;;5.55;3.77;;;;;;;19.02;80.60;100512.38;1742536;82;21260;-54
2023/07/15 04:22:05;;;;;;;11.03;4.55;;;;;;;19.10;80.57;100509.32;1739607;81;21398;-54
2023/07/15 04:25:14;;;;;;;7.45;4.12;;;;;;;19.18;80.62;100519.27;1742663;82;21351;-54
2023/07/15 04:28:22;;;;;;;5.85;3.60;;;;;;;19.24;80.56;100514.19;1739846;82;21330;-54
2023/07/15 04:31:28;;;;;;;6.30;4.10;;;;;;;19.29;80.54;100513.86;1739574;81;21415;-55
2023/07/15 04:34:35;;;;;;;6.62;3.60;;;;;;;19.34;80.51;100515.39;1740458;81;21366;-55
2023/07/15 04:37:40;;;;;;;8.88;4.92;;;;;;;19.43;80.51;100521.50;1740417;81;21236;-55
2023/07/15 04:40:47;;;;;;;5.47;4.37;;;;;;;19.49;80.54;100523.35;1740445;82;21370;-53
2023/07/15 04:43:54;;;;;;;6.78;4.55;;;;;;;19.55;80.45;100522.98;1740515;82;21231;-55
2023/07/15 04:47:00;;;;;;;6.28;4.65;;;;;;;19.58;80.40;100521.99;1740554;82;21401;-56
2023/07/15 04:50:06;;;;;;;6.67;4.67;;;;;;;19.62;80.37;100526.52;1740531;82;21351;-53
2023/07/15 04:53:15;;;;;;;5.65;4.05;;;;;;;19.68;80.37;100531.17;1740456;82;21200;-55
2023/07/15 04:56:20;;;;;;;8.10;4.83;;;;;;;19.72;80.38;100532.39;1740447;82;21205;-56
2023/07/15 04:59:29;;;;;;;7.45;4.45;;;;;;;19.79;80.38;100538.73;1740642;82;21248;-55
2023/07/15 05:02:36;;;;;;;4.87;4.22;;;;;;;19.87;80.45;100530.09;1740470;82;21192;-54
2023/07/15 05:05:44;;;;;;;6.10;3.67;;;;;;;19.96;80.38;100541.19;1740784;82;21359;-54
2023/07/15 05:08:51;;;;;;;9.98;4.05;;;;;;;20.00;80.24;100538.23;1740441;81;21193;-56
2023/07/15 05:12:00;;;;;;;8.00;3.52;;;;;;;20.07;80.24;100539.88;1740497;81;21449;-55
2023/07/15 05:15:01;;;;;;;6.12;3.92;;;;;;;20.14;80.25;100545.36;1740573;82;21169;-55
2023/07/15 05:17:54;;;;;;;8.45;3.80;;;;;;;20.23;80.22;100551.75;1740895;82;21764;-54
2023/07/15 05:20:43;;;;;;;7.05;3.50;;;;;;;20.29;80.16;100548.05;1740489;82;21374;-53
2023/07/15 05:23:35;;;;;;;7.50;3.62;;;;;;;20.38;80.13;100552.73;1741105;81;21346;-55
2023/07/15 05:26:41;;;;;;;7.22;4.05;;;;;;;20.46;80.14;100546.84;1717024;82;21382;-54
2023/07/15 05:29:48;;;;;;;5.97;3.90;;;;;;;20.56;80.14;100549.91;1743202;81;21223;-55
2023/07/15 05:32:53;;;;;;;5.37;3.40;;;;;;;20.67;80.15;100550.49;1740603;82;21455;-56
2023/07/15 05:36:02;;;;;;;5.80;3.33;;;;;;;20.75;80.06;100554.33;1739778;82;21730;-55
2023/07/15 05:39:09;;;;;;;7.65;3.00;;;;;;;20.84;79.94;100558.45;1743194;81;21231;-55
2023/07/15 05:42:07;;;;;;;5.65;3.40;;;;;;;20.93;79.81;100558.41;1740449;81;21219;-54
2023/07/15 05:45:13;;;;;;;5.15;3.65;;;;;;;21.00;79.70;100562.52;1713140;82;21919;-57
2023/07/15 05:48:19;;;;;;;6.78;4.25;;;;;;;21.07;79.60;100569.69;1720445;82;21883;-55
2023/07/15 05:51:25;;;;;;;7.83;4.47;;;;;;;21.16;79.55;100563.20;1740753;81;21370;-55
2023/07/15 05:54:31;;;;;;;5.10;3.37;;;;;;;21.24;79.41;100561.47;1740129;82;21358;-55
2023/07/15 05:57:37;;;;;;;5.30;3.67;;;;;;;21.29;79.24;100566.63;1743314;80;21355;-56
2023/07/15 06:00:46;;;;;;;7.25;3.62;;;;;;;21.36;79.14;100570.13;1740137;81;21206;-55
2023/07/15 06:03:54;;;;;;;8.10;3.00;;;;;;;21.44;79.07;100570.30;1740923;82;21283;-55
2023/07/15 06:07:00;;;;;;;5.00;2.95;;;;;;;21.50;78.97;100567.97;1741092;82;21351;-55
2023/07/15 06:10:07;;;;;;;4.78;3.17;;;;;;;21.58;78.88;100575.40;1740600;82;21851;-54
2023/07/15 06:13:15;;;;;;;5.35;2.80;;;;;;;21.66;78.80;100573.64;1740469;82;21370;-53
2023/07/15 06:16:21;;;;;;;6.70;3.17;;;;;;;21.76;78.71;100583.67;1740667;82;21406;-55
2023/07/15 06:19:28;;;;;;;4.15;2.70;;;;;;;21.79;78.44;100572.56;1737666;82;21228;-55
2023/07/15 06:22:34;;;;;;;4.75;3.20;;;;;;;21.82;78.28;100577.11;1743320;81;22037;-56
2023/07/15 06:25:47;;;;;;;8.43;2.85;;;;;;;21.88;78.21;100578.92;1742302;81;21366;-54
2023/07/15 06:28:54;;;;;;;7.10;2.50;;;;;;;21.95;78.10;100578.25;1740609;82;21341;-56
2023/07/15 06:32:07;;;;;;;3.60;2.77;;;;;;;22.03;77.99;100578.42;1750418;81;21854;-56
2023/07/15 06:35:17;;;;;;;6.25;3.15;;;;;;;22.09;77.85;100589.44;1726689;82;21366;-54
2023/07/15 06:38:22;;;;;;;7.55;3.37;;;;;;;22.17;77.63;100585.41;1722331;83;21272;-54
2023/07/15 06:41:30;;;;;;;5.40;2.65;;;;;;;22.21;77.54;100582.45;1721622;83;21276;-56
2023/07/15 06:44:36;;;;;;;3.10;2.40;;;;;;;22.29;77.45;100584.85;1721358;83;21359;-55
2023/07/15 06:47:42;;;;;;;3.80;2.77;;;;;;;22.37;77.24;100592.83;1721715;83;21240;-56
2023/07/15 06:50:50;;;;;;;4.58;2.40;;;;;;;22.45;77.10;100606.94;1721856;83;21424;-53
2023/07/15 06:53:56;;;;;;;4.87;2.60;;;;;;;22.51;76.93;100601.75;1721703;83;21233;-55
2023/07/15 06:57:02;;;;;;;5.03;2.33;;;;;;;22.56;76.70;100594.38;1722415;83;21194;-54
2023/07/15 07:00:09;;;;;;;7.28;2.90;;;;;;;22.65;76.57;100606.83;1721967;83;21252;-55
2023/07/15 07:03:19;;;;;;;3.80;2.12;;;;;;;22.72;76.35;100595.52;1721951;83;21383;-55
2023/07/15 07:06:27;;;;;;;5.17;2.10;;;;;;;22.77;76.15;100592.83;1721719;83;21391;-56
2023/07/15 07:09:33;;;;;;;3.65;2.35;;;;;;;22.82;75.95;100595.69;1710061;83;21244;-57
2023/07/15 07:12:40;;;;;;;3.50;2.10;;;;;;;22.90;75.83;100602.27;1714838;83;21296;-56
2023/07/15 07:15:46;;;;;;;6.30;2.50;;;;;;;22.98;75.70;100594.88;1729737;81;21223;-55
2023/07/15 07:18:51;;;;;;;5.97;2.90;;;;;;;23.06;75.55;100601.45;1753699;82;21271;-54
2023/07/15 07:22:00;;;;;;;6.83;4.72;;;;;;;23.14;75.29;100595.45;1753477;80;21234;-56
2023/07/15 07:25:07;;;;;;;4.67;2.40;;;;;;;23.16;75.02;100596.91;1754149;81;21926;-55
2023/07/15 07:28:13;;;;;;;5.08;2.52;;;;;;;23.24;74.85;100608.21;1732467;82;22149;-55
2023/07/15 08:01:24;;;;;;;6.37;2.40;;;;;;;23.94;72.42;100603.80;1882669;76;28021;-54
2023/07/15 08:04:30;;;;;;;4.90;2.20;;;;;;;23.98;72.13;100603.59;1799653;79;21750;-54
2023/07/15 08:07:36;;;;;;;5.62;3.02;;;;;;;24.04;71.79;100598.94;1799640;79;21319;-56
2023/07/15 08:10:43;;;;;;;5.30;2.95;;;;;;;24.10;71.62;100598.72;1799226;79;21394;-54
2023/07/15 08:13:47;;;;;;;6.15;2.47;;;;;;;24.15;71.48;100595.99;1799313;79;21331;-55
2023/07/15 08:16:47;;;;;;;5.15;2.47;;;;;;;24.22;71.37;100601.41;1798777;79;21349;-54
2023/07/15 08:19:53;;;;;;;4.83;2.80;;;;;;;24.28;71.17;100594.77;1799126;79;21395;-54
2023/07/15 08:23:00;;;;;;;5.50;2.40;;;;;;;24.37;71.02;100598.81;1799356;79;21356;-55
2023/07/15 08:26:08;;;;;;;2.83;1.90;;;;;;;24.43;70.76;100604.22;1788037;79;21348;-56
2023/07/15 08:29:16;;;;;;;3.05;2.10;;;;;;;24.49;70.54;100600.38;1799468;80;21541;-54
2023/07/15 08:32:23;;;;;;;5.62;2.33;;;;;;;24.54;70.33;100601.84;1799854;79;21386;-55
2023/07/15 08:35:31;;;;;;;5.10;2.40;;;;;;;24.58;69.99;100607.73;1797972;78;21244;-55
2023/07/15 08:38:39;;;;;;;5.90;2.37;;;;;;;24.60;69.81;100602.19;1799926;79;21327;-54
2023/07/15 08:41:46;;;;;;;4.95;2.40;;;;;;;24.70;69.68;100599.55;1839894;77;21322;-55
2023/07/15 08:44:59;;;;;;;4.25;2.37;;;;;;;24.79;69.45;100606.91;1839803;78;21334;-55
2023/07/15 08:48:06;;;;;;;3.17;2.05;;;;;;;24.86;69.16;100605.58;1834108;78;21338;-55
2023/07/15 08:51:13;;;;;;;4.10;2.30;;;;;;;24.95;68.92;100603.16;1835705;78;21405;-57
2023/07/15 08:54:22;;;;;;;5.03;2.20;;;;;;;25.05;68.73;100599.89;1805683;79;21302;-54
2023/07/15 08:57:30;;;;;;;6.72;2.47;;;;;;;25.18;68.42;100595.81;1805978;78;21188;-54
2023/07/15 09:00:35;;;;;;;3.37;2.10;;;;;;;25.30;68.20;100605.45;1803469;79;21172;-56
2023/07/15 09:03:42;;;;;;;5.03;2.27;;;;;;;25.36;67.89;100614.22;1816402;78;21187;-54
2023/07/15 09:06:50;;;;;;;2.95;2.10;;;;;;;25.40;67.53;100599.98;1832856;78;21433;-56
2023/07/15 09:09:55;;;;;;;4.72;2.20;;;;;;;25.49;67.35;100605.38;1807791;78;21676;-55
2023/07/15 09:13:02;;;;;;;4.80;2.22;;;;;;;25.57;66.96;100614.15;1804148;79;22262;-54
2023/07/15 09:16:07;;;;;;;6.42;2.30;;;;;;;25.64;66.75;100610.54;1786258;79;21235;-54
2023/07/15 09:19:12;;;;;;;3.08;2.05;;;;;;;25.77;66.59;100609.23;1775989;79;21669;-55
2023/07/15 09:22:18;;;;;;;3.67;2.05;;;;;;;25.89;66.30;100608.48;1804097;79;21855;-56
2023/07/15 09:25:25;;;;;;;6.45;2.27;;;;;;;25.91;65.88;100611.88;1805254;79;21863;-55
2023/07/15 09:28:32;;;;;;;3.83;2.37;;;;;;;25.85;65.45;100614.33;1834464;78;21349;-54
2023/07/15 09:31:37;;;;;;;5.30;2.45;;;;;;;25.88;65.32;100612.39;1804608;77;21369;-54
2023/07/15 09:34:51;;;;;;;5.53;2.20;;;;;;;25.96;65.05;100609.93;1821039;78;21409;-56
2023/07/15 09:37:58;;;;;;;3.87;2.37;;;;;;;26.02;64.76;100606.65;1779157;79;21355;-54
2023/07/15 09:41:08;;;;;;;4.45;2.30;;;;;;;26.07;64.53;100610.86;1806325;78;21949;-55
2023/07/15 09:44:15;;;;;;;5.08;1.85;;;;;;;26.11;64.15;100620.45;1806028;79;21858;-54
2023/07/15 09:47:21;;;;;;;4.83;1.62;;;;;;;26.14;63.86;100603.05;1810331;78;21339;-56
2023/07/15 09:50:29;;;;;;;5.37;2.17;;;;;;;26.23;63.65;100609.83;1805163;79;21355;-54
2023/07/15 09:53:36;;;;;;;5.10;1.50;;;;;;;26.31;63.34;100612.97;1806178;78;21400;-54
2023/07/15 09:56:46;;;;;;;4.78;1.80;;;;;;;26.34;62.99;100611.57;1816278;78;21169;-54
2023/07/15 09:59:56;;;;;;;3.98;1.42;;;;;;;26.25;62.53;100597.78;1815670;78;21373;-56
2023/07/15 10:03:04;;;;;;;3.80;1.70;;;;;;;26.25;62.39;100601.98;1785088;76;21197;-54
2023/07/15 10:06:11;;;;;;;2.47;1.42;;;;;;;26.27;62.02;100602.57;1752309;80;21204;-53
2023/07/15 10:09:17;;;;;;;4.03;1.70;;;;;;;26.33;61.93;100598.66;1740344;80;21161;-54
2023/07/15 10:12:21;;;;;;;6.62;1.82;;;;;;;26.46;61.79;100593.95;1755416;80;21220;-54
2023/07/15 10:15:30;;;;;;;4.17;1.95;;;;;;;26.55;61.35;100602.13;1780644;79;21169;-55
2023/07/15 10:18:39;;;;;;;5.10;1.77;;;;;;;26.55;60.93;100602.13;1782059;79;21184;-54
2023/07/15 10:21:44;;;;;;;3.62;2.10;;;;;;;26.61;60.69;100603.83;1761847;81;21399;-54
2023/07/15 10:25:04;;;;;;;2.70;1.62;;;;;;;26.75;60.48;100598.58;1741617;82;21748;-53
2023/07/15 10:28:20;;;;;;;4.15;1.87;;;;;;;26.90;60.20;100612.10;1773533;80;21184;-54
2023/07/15 10:31:28;;;;;;;4.00;1.95;;;;;;;26.96;59.71;100611.54;1797603;80;21358;-54
2023/07/15 10:34:49;;;;;;;6.47;2.10;;;;;;;26.87;59.28;100616.02;1761029;79;21339;-54
2023/07/15 10:37:57;;;;;;;6.42;1.92;;;;;;;26.79;58.98;100606.73;1798793;79;21339;-55
2023/07/15 10:41:06;;;;;;;3.02;1.70;;;;;;;26.86;58.85;100637.64;1799042;78;21367;-55
2023/07/15 10:44:28;;;;;;;3.95;1.75;;;;;;;26.76;58.35;100598.85;1799243;79;21370;-55
2023/07/15 10:47:37;;;;;;;7.62;1.98;;;;;;;26.75;58.29;100605.02;1799172;79;21327;-55
2023/07/15 10:50:46;;;;;;;3.40;1.52;;;;;;;26.84;58.15;100599.17;1799168;78;21362;-56
2023/07/15 10:53:55;;;;;;;3.98;1.70;;;;;;;26.89;57.81;100596.93;1799119;79;21332;-55
2023/07/15 10:56:55;;;;;;;5.10;1.72;;;;;;;26.96;57.58;100605.92;1799154;79;21324;-56
2023/07/15 11:00:01;;;;;;;4.62;1.90;;;;;;;27.04;57.29;100592.72;1799387;79;21902;-55
2023/07/15 11:03:09;;;;;;;7.05;1.55;;;;;;;27.03;56.86;100596.12;1799238;79;21335;-54
2023/07/15 11:06:16;;;;;;;5.55;1.67;;;;;;;27.12;56.76;100593.03;1838766;78;21311;-54
2023/07/15 11:09:28;;;;;;;3.98;1.80;;;;;;;27.19;56.37;100587.99;1835354;78;21377;-54
2023/07/15 11:12:34;;;;;;;5.03;1.72;;;;;;;27.21;55.99;100591.34;1807446;78;21318;-55
2023/07/15 11:15:40;;;;;;;3.58;1.60;;;;;;;27.26;55.64;100598.94;1821276;78;21350;-54
2023/07/15 11:18:47;;;;;;;4.35;1.75;;;;;;;27.23;55.35;100577.86;1822611;78;21827;-54
2023/07/15 11:21:54;;;;;;;3.22;1.67;;;;;;;27.26;55.13;100582.95;1821965;78;21338;-55
2023/07/15 11:25:02;;;;;;;5.45;1.70;;;;;;;27.37;55.00;100588.86;1830167;78;21378;-55
2023/07/15 11:28:09;;;;;;;1.62;1.40;;;;;;;27.48;54.84;100589.14;1800520;78;21227;-55
2023/07/15 11:31:14;;;;;;;2.45;1.52;;;;;;;27.58;54.51;100598.98;1816458;78;21895;-54
2023/07/15 11:34:23;;;;;;;2.65;1.27;;;;;;;27.58;54.12;100589.14;1800744;78;21322;-54
2023/07/15 11:37:29;;;;;;;4.85;1.85;;;;;;;27.65;53.81;100585.47;1829472;78;21338;-54
2023/07/15 11:40:36;;;;;;;3.65;1.75;;;;;;;27.71;53.46;100580.69;1804707;79;21271;-54
2023/07/15 11:43:43;;;;;;;3.52;1.82;;;;;;;27.80;53.35;100588.27;1806033;78;21366;-54
2023/07/15 11:46:52;;;;;;;3.20;1.32;;;;;;;27.77;52.96;100576.18;1793798;79;21359;-54
2023/07/15 11:49:59;;;;;;;5.80;1.70;;;;;;;27.82;52.76;100581.80;1793099;80;21880;-54
2023/07/15 11:53:05;;;;;;;1.80;1.42;;;;;;;27.77;52.31;100579.55;1793304;80;21890;-55
2023/07/15 11:56:12;;;;;;;4.53;1.65;;;;;;;27.68;52.05;100588.30;1792688;80;21772;-53
2023/07/15 11:59:22;;;;;;;4.50;1.30;;;;;;;27.62;51.70;100580.41;1793072;80;21379;-54
2023/07/15 12:02:29;;;;;;;1.95;1.20;;;;;;;27.57;51.46;100576.77;1793411;79;21887;-55
2023/07/15 12:05:39;;;;;;;3.75;1.35;;;;;;;27.56;51.25;100582.95;1791654;79;21375;-54
2023/07/15 12:08:46;;;;;;;5.17;1.40;;;;;;;27.53;50.98;100568.59;1793863;80;21339;-54
2023/07/15 12:11:56;;;;;;;3.47;1.40;;;;;;;27.55;50.87;100568.62;1793503;80;21347;-54
2023/07/15 12:15:04;;;;;;;3.35;1.05;;;;;;;27.51;50.49;100581.54;1803684;78;21512;-56
2023/07/15 12:18:12;;;;;;;2.37;1.22;;;;;;;27.44;50.21;100580.14;1793210;80;21232;-55
2023/07/15 12:21:17;;;;;;;1.80;1.05;;;;;;;27.32;49.81;100583.23;1774321;80;21847;-54
2023/07/15 12:24:24;;;;;;;1.92;1.30;;;;;;;27.24;49.71;100576.72;1806677;78;21389;-54
2023/07/15 12:27:31;;;;;;;3.58;1.57;;;;;;;27.27;49.65;100572.01;1836999;78;21371;-56
2023/07/15 12:30:38;;;;;;;3.58;1.40;;;;;;;27.34;49.40;100568.89;1829323;78;21417;-54
2023/07/15 12:33:43;;;;;;;3.50;1.20;;;;;;;27.35;49.25;100571.41;1819980;78;21913;-55
2023/07/15 12:36:51;;;;;;;3.45;1.50;;;;;;;27.39;48.97;100570.30;1838712;77;21688;-55
2023/07/15 12:39:58;;;;;;;2.35;1.20;;;;;;;27.37;48.68;100577.61;1816314;78;21845;-55
2023/07/15 12:43:05;;;;;;;2.42;1.37;;;;;;;27.29;48.42;100564.70;1838355;77;21337;-55
2023/07/15 12:46:13;;;;;;;3.08;1.35;;;;;;;27.22;48.24;100573.92;1828349;77;21716;-55
2023/07/15 12:49:19;;;;;;;5.33;1.57;;;;;;;27.14;48.08;100571.67;1820082;78;21406;-54
2023/07/15 12:52:26;;;;;;;4.12;1.50;;;;;;;27.14;48.00;100570.27;1827551;78;21212;-54
2023/07/15 12:55:26;;;;;;;3.45;1.60;;;;;;;27.20;47.99;100577.02;1827738;78;21369;-54
2023/07/15 12:58:32;;;;;;;7.53;1.67;;;;;;;27.24;47.85;100578.72;1833891;78;21922;-54
2023/07/15 13:01:38;;;;;;;2.08;1.30;;;;;;;27.23;47.66;100576.45;1838807;78;21311;-54
2023/07/15 13:04:46;;;;;;;2.52;1.30;;;;;;;27.27;47.48;100562.72;1838619;78;21689;-53
2023/07/15 13:07:54;;;;;;;2.12;1.40;;;;;;;27.35;47.43;100568.61;1836730;78;21875;-55
2023/07/15 13:11:01;;;;;;;2.58;1.40;;;;;;;27.42;47.21;100571.99;1833219;78;22044;-53
2023/07/15 13:14:06;;;;;;;2.85;1.55;;;;;;;27.42;47.00;100566.37;1836585;78;21688;-54
2023/07/15 13:17:12;;;;;;;4.37;1.62;;;;;;;27.50;46.97;100563.54;1837668;78;21326;-55
2023/07/15 13:20:20;;;;;;;6.03;2.10;;;;;;;27.56;46.75;100571.70;1837205;78;21335;-54
2023/07/15 13:23:25;;;;;;;3.00;1.35;;;;;;;27.63;46.73;100567.19;1819466;77;21319;-54
2023/07/15 13:26:31;;;;;;;3.15;1.67;;;;;;;27.74;46.58;100559.87;1832823;78;21307;-54
2023/07/15 13:29:37;;;;;;;2.85;1.30;;;;;;;27.81;46.42;100566.02;1837483;78;21350;-55
2023/07/15 13:32:44;;;;;;;4.05;1.32;;;;;;;27.83;46.25;100568.55;1837831;78;21365;-56
2023/07/15 13:35:51;;;;;;;6.28;2.02;;;;;;;27.75;46.09;100581.23;1837692;78;21350;-55
2023/07/15 13:38:56;;;;;;;3.42;1.67;;;;;;;27.50;45.75;100561.58;1820618;77;21330;-54
2023/07/15 13:42:01;;;;;;;5.33;1.62;;;;;;;27.27;45.66;100567.79;1838295;78;21381;-55
2023/07/15 13:45:08;;;;;;;2.92;1.70;;;;;;;27.14;45.70;100575.33;1837138;78;21854;-55
2023/07/15 13:48:14;;;;;;;4.10;1.70;;;;;;;27.13;45.75;100577.02;1822068;77;21937;-56
2023/07/15 13:51:21;;;;;;;4.83;1.77;;;;;;;27.21;45.83;100566.63;1821507;78;21235;-55
2023/07/15 13:54:27;;;;;;;4.28;1.70;;;;;;;27.31;45.83;100566.64;1822611;78;21491;-55
2023/07/15 13:57:35;;;;;;;7.53;1.72;;;;;;;27.37;45.84;100566.95;1835652;78;21752;-55
2023/07/15 14:00:40;;;;;;;2.98;1.57;;;;;;;27.43;45.79;100575.66;1820359;77;21362;-54
2023/07/15 14:03:47;;;;;;;5.33;1.22;;;;;;;27.43;45.66;100576.48;1837650;77;21866;-55
2023/07/15 14:06:53;;;;;;;3.85;1.50;;;;;;;27.35;45.47;100574.23;1836622;78;21354;-55
2023/07/15 14:09:59;;;;;;;4.75;1.60;;;;;;;27.27;45.37;100567.79;1838176;77;21867;-54
2023/07/15 14:13:06;;;;;;;3.52;1.32;;;;;;;27.26;45.43;100567.48;1829397;78;21341;-53
2023/07/15 14:16:11;;;;;;;2.87;1.40;;;;;;;27.25;45.36;100564.38;1832209;78;21330;-53
2023/07/15 14:19:16;;;;;;;4.60;1.35;;;;;;;27.19;45.27;100559.88;1821915;77;21200;-54
2023/07/15 14:22:21;;;;;;;5.05;1.70;;;;;;;27.15;45.23;100558.73;1769349;79;21252;-54
2023/07/15 14:25:28;;;;;;;3.08;1.60;;;;;;;27.21;45.26;100561.00;1805335;79;21290;-55
2023/07/15 14:28:36;;;;;;;2.37;1.40;;;;;;;27.21;45.13;100562.41;1819739;78;21200;-55
2023/07/15 14:31:45;;;;;;;3.92;1.65;;;;;;;27.27;45.08;100563.58;1828218;78;21404;-54
2023/07/15 14:34:51;;;;;;;2.30;1.57;;;;;;;27.40;44.88;100564.97;1827797;78;21200;-55
2023/07/15 14:37:58;;;;;;;2.90;1.60;;;;;;;27.37;44.84;100562.14;1827653;78;21585;-55
2023/07/15 14:41:05;;;;;;;3.15;1.90;;;;;;;27.35;44.89;100571.41;1828035;78;21867;-55
2023/07/15 14:44:12;;;;;;;3.67;2.02;;;;;;;27.41;44.89;100569.46;1827823;78;21212;-55
2023/07/15 14:47:17;;;;;;;5.53;2.52;;;;;;;27.39;44.73;100570.30;1827571;78;21185;-55
2023/07/15 14:50:24;;;;;;;3.62;1.75;;;;;;;27.30;44.64;100570.59;1827512;78;21258;-55
2023/07/15 14:53:29;;;;;;;3.95;1.62;;;;;;;27.21;44.54;100573.07;1828193;78;21200;-55
2023/07/15 14:56:36;;;;;;;3.87;1.90;;;;;;;27.08;44.44;100576.45;1830067;78;21366;-55